createdAt,value
2019-06-27T00:02:39.005Z,5
2019-06-27T00:07:41.390Z,5
2019-06-27T00:12:43.844Z,5
2019-06-27T00:17:46.278Z,6
2019-06-27T00:22:48.743Z,6
2019-06-27T00:27:51.217Z,6
2019-06-27T00:32:53.701Z,7
2019-06-27T00:37:56.199Z,6
2019-06-27T00:42:58.515Z,6
2019-06-27T00:48:01.036Z,6
2019-06-27T00:53:03.359Z,7
2019-06-27T01:03:08.282Z,7
2019-06-27T01:08:10.723Z,7
2019-06-27T01:13:13.134Z,7
2019-06-27T01:18:15.628Z,7
2019-06-27T01:23:18.026Z,7
2019-06-27T01:28:20.585Z,7
2019-06-27T01:33:22.928Z,7
2019-06-27T01:38:25.359Z,8
2019-06-27T01:43:27.786Z,7
2019-06-27T01:48:30.494Z,7
2019-06-27T01:53:32.658Z,8
2019-06-27T01:58:35.196Z,8
2019-06-27T02:03:37.542Z,8
2019-06-27T02:08:40.037Z,9
2019-06-27T02:13:42.444Z,9
2019-06-27T02:23:47.333Z,7
2019-06-27T02:28:49.885Z,7
2019-06-27T02:33:52.212Z,7
2019-06-27T02:38:54.820Z,7
2019-06-27T02:43:57.177Z,7
2019-06-27T02:49:00.144Z,7
2019-06-27T02:54:02.042Z,7
2019-06-27T02:59:04.407Z,6
2019-06-27T03:04:06.851Z,6
2019-06-27T03:09:09.544Z,7
2019-06-27T03:14:11.755Z,6
2019-06-27T03:19:14.316Z,6
2019-06-27T03:24:16.622Z,6
2019-06-27T03:29:20.477Z,6
2019-06-27T03:34:21.744Z,6
2019-06-27T03:39:23.956Z,5
2019-06-27T03:44:26.388Z,5
2019-06-27T03:49:28.829Z,6
2019-06-27T03:54:31.259Z,8
2019-06-27T03:59:33.769Z,8
2019-06-27T04:04:36.172Z,7
2019-06-27T04:09:38.585Z,6
2019-06-27T04:14:41.044Z,6
2019-06-27T04:19:43.509Z,6
2019-06-27T04:24:45.920Z,6
2019-06-27T04:29:48.398Z,6
2019-06-27T04:34:50.813Z,6
2019-06-27T04:39:53.472Z,6
2019-06-27T04:44:55.698Z,6
2019-06-27T04:49:58.207Z,6
2019-06-27T04:55:03.237Z,6
2019-06-27T05:00:03.031Z,6
2019-06-27T05:05:05.489Z,6
2019-06-27T05:10:07.892Z,6
2019-06-27T05:20:12.783Z,7
2019-06-27T05:25:15.224Z,7
2019-06-27T05:30:17.690Z,8
2019-06-27T05:40:22.543Z,8
2019-06-27T05:45:25.005Z,7
2019-06-27T05:50:27.595Z,7
2019-06-27T05:55:30.046Z,7
2019-06-27T06:00:32.320Z,8
2019-06-27T06:05:34.838Z,8
2019-06-27T06:10:37.194Z,8
2019-06-27T06:15:39.705Z,8
2019-06-27T06:20:42.135Z,10
2019-06-27T06:25:44.593Z,11
2019-06-27T06:30:46.984Z,10
2019-06-27T06:35:49.420Z,11
2019-06-27T06:40:51.853Z,10
2019-06-27T06:45:54.300Z,12
2019-06-27T06:50:56.721Z,12
2019-06-27T06:55:59.237Z,11
2019-06-27T07:01:02.614Z,10
2019-06-27T07:06:04.058Z,11
2019-06-27T07:11:06.517Z,9
2019-06-27T07:16:08.934Z,10
2019-06-27T07:21:11.367Z,8
2019-06-27T07:26:13.826Z,9
2019-06-27T07:31:17.968Z,10
2019-06-27T07:36:18.790Z,10
2019-06-27T07:41:21.191Z,10
2019-06-27T07:51:26.029Z,14
2019-06-27T07:56:28.503Z,15
2019-06-27T08:01:35.296Z,11
2019-06-27T08:06:33.386Z,13
2019-06-27T08:11:35.781Z,13
2019-06-27T08:16:38.367Z,10
2019-06-27T08:21:40.688Z,9
2019-06-27T08:26:44.649Z,10
2019-06-27T08:36:48.018Z,11
2019-06-27T08:46:52.883Z,12
2019-06-27T08:51:55.347Z,14
2019-06-27T08:56:57.753Z,13
2019-06-27T09:02:08.259Z,13
2019-06-27T09:07:02.649Z,13
2019-06-27T09:12:05.162Z,12
2019-06-27T09:17:07.712Z,9
2019-06-27T09:22:10.017Z,9
2019-06-27T09:27:12.454Z,9
2019-06-27T09:32:24.604Z,13
2019-06-27T09:37:17.355Z,7
2019-06-27T09:42:19.801Z,7
2019-06-27T09:47:22.171Z,11
2019-06-27T09:52:24.887Z,4
2019-06-27T09:57:27.069Z,3
2019-06-27T10:02:40.779Z,3
2019-06-27T10:07:32.011Z,2
2019-06-27T10:12:42.084Z,2
2019-06-27T10:17:37.030Z,2
2019-06-27T10:22:39.301Z,2
2019-06-27T10:27:41.782Z,1
2019-06-27T10:37:46.623Z,1
2019-06-27T10:42:49.096Z,1
2019-06-27T10:47:51.632Z,1
2019-06-27T10:52:54.161Z,1
2019-06-27T10:57:56.365Z,1
2019-06-27T11:08:01.346Z,1
2019-06-27T11:13:03.770Z,1
2019-06-27T11:18:06.195Z,1
2019-06-27T11:23:08.614Z,1
2019-06-27T11:28:11.027Z,1
2019-06-27T11:33:13.485Z,1
2019-06-27T11:38:15.935Z,1
2019-06-27T11:43:18.361Z,1
2019-06-27T11:48:20.791Z,1
2019-06-27T11:53:23.255Z,1
2019-06-27T11:58:25.791Z,1
2019-06-27T12:03:28.124Z,1
2019-06-27T12:08:30.599Z,1
2019-06-27T12:13:32.997Z,1
2019-06-27T12:18:35.864Z,1
2019-06-27T12:23:37.953Z,1
2019-06-27T12:28:40.310Z,1
2019-06-27T12:33:42.759Z,1
2019-06-27T12:38:45.226Z,1
2019-06-27T12:43:47.805Z,1
2019-06-27T12:48:50.141Z,1
2019-06-27T12:53:55.631Z,1
2019-06-27T12:58:54.983Z,1
2019-06-27T13:03:57.454Z,2
2019-06-27T13:08:59.856Z,1
2019-06-27T13:14:02.314Z,2
2019-06-27T13:19:04.860Z,2
2019-06-27T13:24:07.277Z,1
2019-06-27T13:29:09.658Z,1
2019-06-27T13:34:12.172Z,1
2019-06-27T13:39:14.538Z,1
2019-06-27T13:44:16.956Z,2
2019-06-27T13:49:19.413Z,1
2019-06-27T13:59:24.520Z,2
2019-06-27T14:04:26.696Z,2
2019-06-27T14:09:29.255Z,1
2019-06-27T14:14:31.682Z,2
2019-06-27T14:19:34.515Z,2
2019-06-27T14:24:36.561Z,2
2019-06-27T14:29:39.030Z,2
2019-06-27T14:34:41.589Z,1
2019-06-27T14:39:43.875Z,1
2019-06-27T14:44:46.246Z,1
2019-06-27T14:49:48.741Z,1
2019-06-27T14:54:51.160Z,1
2019-06-27T14:59:53.723Z,1
2019-06-27T15:04:56.009Z,1
2019-06-27T15:09:58.568Z,2
2019-06-27T15:15:00.966Z,1
2019-06-27T15:20:03.348Z,1
2019-06-27T15:25:05.817Z,2
2019-06-27T15:30:08.219Z,1
2019-06-27T15:35:10.895Z,2
2019-06-27T15:40:13.114Z,1
2019-06-27T15:45:15.587Z,1
2019-06-27T15:50:18.017Z,2
2019-06-27T15:55:20.555Z,1
2019-06-27T16:00:22.883Z,1
2019-06-27T16:05:25.381Z,1
2019-06-27T16:10:27.800Z,1
2019-06-27T16:15:30.263Z,1
2019-06-27T16:20:32.742Z,1
2019-06-27T16:25:35.088Z,1
2019-06-27T16:30:37.617Z,1
2019-06-27T16:35:39.962Z,1
2019-06-27T16:40:42.488Z,1
2019-06-27T16:45:45.027Z,1
2019-06-27T16:50:47.303Z,1
2019-06-27T16:55:49.862Z,1
2019-06-27T17:00:52.328Z,1
2019-06-27T17:05:54.783Z,1
2019-06-27T17:10:58.734Z,1
2019-06-27T17:15:59.597Z,1
2019-06-27T17:21:01.974Z,1
2019-06-27T17:26:11.092Z,2
2019-06-27T17:31:06.998Z,2
2019-06-27T17:36:09.275Z,2
2019-06-27T17:41:11.705Z,2
2019-06-27T17:46:14.213Z,1
2019-06-27T17:51:16.605Z,1
2019-06-27T17:56:19.215Z,1
2019-06-27T18:01:21.541Z,1
2019-06-27T18:06:24.073Z,1
2019-06-27T18:11:26.371Z,1
2019-06-27T18:16:28.836Z,1
2019-06-27T18:21:31.283Z,1
2019-06-27T18:26:33.738Z,1
2019-06-27T18:31:36.143Z,1
2019-06-27T18:36:38.583Z,1
2019-06-27T18:41:41.084Z,1
2019-06-27T18:46:43.495Z,1
2019-06-27T18:51:45.914Z,1
2019-06-27T18:56:48.363Z,1
2019-06-27T19:01:50.825Z,1
2019-06-27T19:06:53.220Z,1
2019-06-27T19:11:55.671Z,1
2019-06-27T19:16:58.151Z,1
2019-06-27T19:22:00.551Z,2
2019-06-27T19:27:02.984Z,2
2019-06-27T19:32:05.432Z,2
2019-06-27T19:37:07.969Z,2
2019-06-27T19:42:10.332Z,2
2019-06-27T19:47:12.776Z,1
2019-06-27T19:52:15.335Z,2
2019-06-27T19:57:17.655Z,2
2019-06-27T20:02:20.140Z,2
2019-06-27T20:07:22.548Z,2
2019-06-27T20:12:24.962Z,2
2019-06-27T20:17:27.749Z,1
2019-06-27T20:22:29.938Z,1
2019-06-27T20:27:32.472Z,2
2019-06-27T20:32:34.805Z,2
2019-06-27T20:37:37.279Z,2
2019-06-27T20:42:39.736Z,2
2019-06-27T20:47:42.061Z,2
2019-06-27T20:52:44.739Z,2
2019-06-27T20:57:46.941Z,3
2019-06-27T21:02:49.439Z,2
2019-06-27T21:07:51.881Z,2
2019-06-27T21:12:54.489Z,2
2019-06-27T21:17:56.739Z,2
2019-06-27T21:22:59.417Z,2
2019-06-27T21:28:01.627Z,3
2019-06-27T21:33:04.121Z,3
2019-06-27T21:38:06.753Z,3
2019-06-27T21:43:08.900Z,3
2019-06-27T21:48:11.441Z,3
2019-06-27T21:53:13.795Z,3
2019-06-27T21:58:16.245Z,3
2019-06-27T22:03:18.733Z,3
2019-06-27T22:08:21.131Z,2
2019-06-27T22:13:23.609Z,2
2019-06-27T22:18:26.103Z,3
2019-06-27T22:23:28.430Z,2
2019-06-27T22:28:30.875Z,2
2019-06-27T22:33:33.311Z,2
2019-06-27T22:38:35.784Z,2
2019-06-27T22:43:38.254Z,2
2019-06-27T22:48:40.760Z,2
2019-06-27T22:53:43.086Z,2
2019-06-27T22:58:45.596Z,2
2019-06-27T23:03:47.985Z,3
2019-06-27T23:08:50.415Z,2
2019-06-27T23:13:52.863Z,2
2019-06-27T23:18:55.384Z,2
2019-06-27T23:23:57.752Z,2
2019-06-27T23:29:00.169Z,2
2019-06-27T23:34:02.828Z,2
2019-06-27T23:39:05.185Z,2
2019-06-27T23:44:07.520Z,2
2019-06-27T23:54:12.363Z,2
2019-06-27T23:59:14.811Z,3
